Time;durP1;ratioP1;P1;durP2;ratioP2;P2;SDS_P1;SDS_P2;PMS_P1;PMS_P2;Temp;Humidity;BMP_temperature;BMP_pressure;BME280_temperature;BME280_humidity;BME280_pressure;Samples;Min_cycle;Max_cycle;Signal;HPM_P1;HPM_P2
2023/09/06 00:01:39;;;;;;;3.97;3.05;;;19.60;99.90;;;;;;7390956;19;20146;-75
2023/09/06 00:04:05;;;;;;;5.78;3.05;;;19.50;99.90;;;;;;7388328;19;20467;-76
2023/09/06 00:06:31;;;;;;;4.90;3.10;;;19.20;99.90;;;;;;7391718;19;20658;-76
2023/09/06 00:08:57;;;;;;;4.55;3.08;;;19.00;99.90;;;;;;7389966;19;20149;-75
2023/09/06 00:11:24;;;;;;;3.88;3.03;;;18.80;99.90;;;;;;7384199;19;20148;-75
2023/09/06 00:13:50;;;;;;;4.55;3.08;;;18.80;99.90;;;;;;7388094;19;20230;-76
2023/09/06 00:16:16;;;;;;;3.33;3.00;;;18.90;99.90;;;;;;7387997;19;20156;-75
2023/09/06 00:18:42;;;;;;;3.20;2.72;;;18.90;99.90;;;;;;7388955;19;20505;-75
2023/09/06 00:21:08;;;;;;;3.72;2.92;;;19.00;99.90;;;;;;7390085;19;20189;-75
2023/09/06 00:23:34;;;;;;;4.38;2.80;;;18.90;99.90;;;;;;7390834;19;20134;-75
2023/09/06 00:25:59;;;;;;;4.85;3.08;;;19.10;99.90;;;;;;7388458;19;20585;-76
2023/09/06 00:28:25;;;;;;;5.43;3.10;;;19.20;99.90;;;;;;7391371;19;20476;-76
2023/09/06 00:30:54;;;;;;;3.72;2.75;;;19.00;99.90;;;;;;7392212;19;20563;-75
2023/09/06 00:33:21;;;;;;;3.05;2.47;;;19.00;99.90;;;;;;7388538;19;20142;-75
2023/09/06 00:35:47;;;;;;;4.57;2.80;;;19.00;99.90;;;;;;7391879;19;20475;-76
2023/09/06 00:38:14;;;;;;;3.30;2.80;;;19.20;99.90;;;;;;7390557;19;20146;-75
2023/09/06 00:40:40;;;;;;;5.90;2.85;;;19.20;99.90;;;;;;7389806;19;20592;-75
2023/09/06 00:43:08;;;;;;;4.47;3.00;;;19.50;99.90;;;;;;7389122;19;20468;-75
2023/09/06 00:45:45;;;;;;;4.13;2.75;;;19.60;99.90;;;;;;7390674;19;20580;-75
2023/09/06 00:48:37;;;;;;;3.70;2.50;;;19.70;99.90;;;;;;7387847;19;20171;-75
2023/09/06 00:51:04;;;;;;;3.05;2.60;;;19.30;99.90;;;;;;7390041;19;20154;-75
2023/09/06 00:53:31;;;;;;;3.55;2.60;;;18.90;99.90;;;;;;7385957;19;20246;-76
2023/09/06 00:55:59;;;;;;;4.05;3.05;;;18.50;99.90;;;;;;7392792;19;20134;-76
2023/09/06 00:58:29;;;;;;;3.10;2.80;;;18.30;99.90;;;;;;7388266;19;20483;-75
2023/09/06 01:00:55;;;;;;;3.15;2.50;;;18.30;99.90;;;;;;7391235;19;20135;-76
2023/09/06 01:03:20;;;;;;;3.20;2.53;;;18.30;99.90;;;;;;7387527;19;20143;-75
2023/09/06 01:06:05;;;;;;;4.80;2.80;;;18.20;99.90;;;;;;7389144;19;20151;-75
2023/09/06 01:08:41;;;;;;;4.80;2.92;;;18.00;99.90;;;;;;7390018;19;20273;-75
2023/09/06 01:11:23;;;;;;;4.38;2.45;;;18.10;99.90;;;;;;7389009;19;20141;-75
2023/09/06 01:13:52;;;;;;;4.07;2.90;;;18.10;99.90;;;;;;7388527;19;20157;-75
2023/09/06 01:16:29;;;;;;;5.47;3.60;;;18.00;99.90;;;;;;7390944;19;20151;-76
2023/09/06 01:18:55;;;;;;;4.95;2.75;;;18.00;99.90;;;;;;7390350;19;20497;-76
2023/09/06 01:21:27;;;;;;;4.30;2.67;;;17.90;99.90;;;;;;7389734;19;20139;-75
2023/09/06 01:23:54;;;;;;;4.22;2.83;;;17.90;99.90;;;;;;7391381;19;20210;-76
2023/09/06 01:26:20;;;;;;;4.13;2.80;;;18.00;99.90;;;;;;7388942;19;20544;-75
2023/09/06 01:28:49;;;;;;;4.60;3.10;;;18.10;99.90;;;;;;7386439;19;20158;-75
2023/09/06 01:31:16;;;;;;;3.33;2.60;;;18.10;99.90;;;;;;7387550;19;20158;-75
2023/09/06 01:33:43;;;;;;;3.22;2.60;;;18.10;99.90;;;;;;7387281;19;20146;-75
2023/09/06 01:36:09;;;;;;;4.13;2.90;;;18.30;99.90;;;;;;7387960;19;20165;-75
2023/09/06 01:38:34;;;;;;;3.70;2.67;;;18.40;99.90;;;;;;7388513;19;20485;-75
2023/09/06 01:41:03;;;;;;;3.50;2.92;;;18.30;99.90;;;;;;7389354;19;20201;-75
2023/09/06 01:43:29;;;;;;;4.53;3.47;;;18.00;99.90;;;;;;7387187;19;20245;-75
2023/09/06 01:45:55;;;;;;;4.10;2.80;;;18.10;99.90;;;;;;7385672;19;20143;-75
2023/09/06 01:48:21;;;;;;;3.63;2.47;;;18.30;99.90;;;;;;7386639;19;20153;-76
2023/09/06 01:50:47;;;;;;;2.75;2.42;;;18.40;99.90;;;;;;7389476;19;20134;-75
2023/09/06 01:53:13;;;;;;;4.13;2.97;;;18.40;99.90;;;;;;7384508;19;20134;-76
2023/09/06 01:55:41;;;;;;;4.10;3.15;;;18.50;99.90;;;;;;7388517;19;20138;-75
2023/09/06 01:58:08;;;;;;;4.95;3.58;;;18.60;99.90;;;;;;7388268;19;20134;-75
2023/09/06 02:00:36;;;;;;;4.97;3.05;;;18.60;99.90;;;;;;7388049;19;20149;-75
2023/09/06 02:03:02;;;;;;;3.58;3.03;;;18.50;99.90;;;;;;7385176;19;20185;-75
2023/09/06 02:05:30;;;;;;;5.68;2.80;;;18.30;99.90;;;;;;7385204;19;20182;-75
2023/09/06 02:07:56;;;;;;;4.10;3.17;;;18.10;99.90;;;;;;7387470;19;20142;-75
2023/09/06 02:10:22;;;;;;;3.90;2.97;;;18.40;99.90;;;;;;7383667;19;20134;-75
2023/09/06 02:12:47;;;;;;;4.80;3.03;;;18.30;99.90;;;;;;7383646;19;20171;-75
2023/09/06 02:15:14;;;;;;;4.85;3.17;;;18.40;99.90;;;;;;7386436;19;20477;-76
2023/09/06 02:17:44;;;;;;;4.90;3.25;;;18.60;99.90;;;;;;7386484;19;20162;-76
2023/09/06 02:20:17;;;;;;;6.35;3.38;;;18.40;99.90;;;;;;7387891;19;20153;-75
2023/09/06 02:22:48;;;;;;;5.90;3.50;;;18.20;99.90;;;;;;7385672;19;20139;-76
2023/09/06 02:25:15;;;;;;;4.22;2.90;;;18.10;99.90;;;;;;7386666;19;20138;-75
2023/09/06 02:27:41;;;;;;;4.53;3.17;;;17.80;99.90;;;;;;7386730;19;20139;-76
2023/09/06 02:30:08;;;;;;;3.20;2.60;;;17.90;99.90;;;;;;7384706;19;20149;-74
2023/09/06 02:32:34;;;;;;;4.97;3.10;;;18.00;99.90;;;;;;7386980;19;20135;-75
2023/09/06 02:35:01;;;;;;;3.35;2.72;;;18.10;99.90;;;;;;7388931;19;20131;-75
2023/09/06 02:37:27;;;;;;;8.07;2.92;;;18.50;99.90;;;;;;7385340;19;20530;-75
2023/09/06 02:39:52;;;;;;;3.03;2.65;;;18.70;99.90;;;;;;7391295;19;20153;-74
2023/09/06 02:42:22;;;;;;;4.32;3.05;;;18.80;99.90;;;;;;7391976;19;20130;-75
2023/09/06 02:44:47;;;;;;;6.25;3.10;;;18.90;99.90;;;;;;7394638;19;20135;-75
2023/09/06 02:47:17;;;;;;;4.70;3.33;;;18.90;99.90;;;;;;7392086;19;20131;-74
2023/09/06 02:49:47;;;;;;;3.80;3.15;;;18.90;99.90;;;;;;7394409;19;20210;-75
2023/09/06 02:52:28;;;;;;;3.78;3.15;;;18.90;99.90;;;;;;7392305;19;20560;-75
2023/09/06 02:54:57;;;;;;;3.97;3.10;;;18.30;99.90;;;;;;7392302;19;20138;-74
2023/09/06 02:57:25;;;;;;;5.28;3.78;;;18.00;99.90;;;;;;7393149;19;20123;-75
2023/09/06 02:59:52;;;;;;;3.38;2.67;;;17.70;99.90;;;;;;7392195;19;20146;-75
2023/09/06 03:02:22;;;;;;;3.65;3.10;;;17.80;99.90;;;;;;7389899;19;20218;-75
2023/09/06 03:04:51;;;;;;;5.65;2.88;;;17.50;99.90;;;;;;7392968;19;20559;-74
2023/09/06 03:07:19;;;;;;;4.40;3.20;;;17.40;99.90;;;;;;7392650;19;20254;-75
2023/09/06 03:09:44;;;;;;;5.25;3.05;;;17.50;99.90;;;;;;7394121;19;20126;-75
2023/09/06 03:12:14;;;;;;;4.97;2.85;;;17.50;99.90;;;;;;7392909;19;20473;-76
2023/09/06 03:14:47;;;;;;;4.45;3.20;;;17.70;99.90;;;;;;7389877;19;20139;-74
2023/09/06 03:17:18;;;;;;;3.22;2.80;;;17.60;99.90;;;;;;7390477;19;20131;-75
2023/09/06 03:19:46;;;;;;;3.65;2.75;;;17.40;99.90;;;;;;7390879;19;20142;-75
2023/09/06 03:22:12;;;;;;;6.35;2.97;;;17.70;99.90;;;;;;7393835;19;20463;-75
2023/09/06 03:24:42;;;;;;;5.60;2.85;;;17.60;99.90;;;;;;7392682;19;20131;-75
2023/09/06 03:27:08;;;;;;;6.80;2.97;;;17.50;99.90;;;;;;7390789;19;20505;-76
2023/09/06 03:29:37;;;;;;;4.75;3.40;;;17.50;99.90;;;;;;7393970;19;20138;-74
2023/09/06 03:32:08;;;;;;;5.03;3.10;;;17.50;99.90;;;;;;7393108;19;20135;-77
2023/09/06 03:34:40;;;;;;;4.35;3.30;;;17.30;99.90;;;;;;7389329;19;20127;-75
2023/09/06 03:37:08;;;;;;;5.60;3.13;;;17.20;99.90;;;;;;7393749;19;20130;-75
2023/09/06 03:39:40;;;;;;;5.43;3.03;;;17.30;99.90;;;;;;7391627;19;20174;-75
2023/09/06 03:42:08;;;;;;;4.80;2.70;;;17.60;99.90;;;;;;7390116;19;20151;-75
2023/09/06 03:44:38;;;;;;;3.95;3.00;;;17.40;99.90;;;;;;7391020;19;20147;-75
2023/09/06 03:47:06;;;;;;;6.45;3.42;;;17.60;99.90;;;;;;7392918;19;20139;-76
2023/09/06 03:49:35;;;;;;;4.22;3.22;;;17.40;99.90;;;;;;7391523;19;20587;-73
2023/09/06 03:52:04;;;;;;;3.30;3.00;;;17.50;99.90;;;;;;7390362;19;20157;-75
2023/09/06 03:54:34;;;;;;;5.07;3.47;;;17.60;99.90;;;;;;7390223;19;20146;-75
2023/09/06 03:57:12;;;;;;;6.60;3.70;;;17.60;99.90;;;;;;7391337;19;20492;-75
2023/09/06 03:59:40;;;;;;;4.65;3.58;;;17.70;99.90;;;;;;7390939;19;20210;-76
2023/09/06 04:02:09;;;;;;;5.20;3.05;;;17.50;99.90;;;;;;7390005;19;20626;-75
2023/09/06 04:04:35;;;;;;;5.05;3.53;;;17.60;99.90;;;;;;7388227;19;20192;-75
2023/09/06 04:07:01;;;;;;;4.43;3.30;;;17.60;99.90;;;;;;7391799;19;20138;-75
2023/09/06 04:09:37;;;;;;;4.25;3.05;;;16.90;99.90;;;;;;7389985;19;20369;-75
2023/09/06 04:12:05;;;;;;;4.07;3.05;;;16.70;99.90;;;;;;7388869;19;20155;-75
2023/09/06 04:14:35;;;;;;;6.68;3.45;;;16.60;99.90;;;;;;7387554;19;20127;-75
2023/09/06 04:17:01;;;;;;;4.32;3.47;;;16.70;99.90;;;;;;7390150;19;20135;-75
2023/09/06 04:19:27;;;;;;;4.75;3.10;;;16.60;99.90;;;;;;7388484;19;20134;-75
2023/09/06 04:21:53;;;;;;;4.60;3.15;;;16.50;99.90;;;;;;7389510;19;20155;-74
2023/09/06 04:24:20;;;;;;;4.68;3.42;;;16.40;99.90;;;;;;7388215;19;20123;-75
2023/09/06 04:26:46;;;;;;;4.18;3.30;;;16.30;99.90;;;;;;7388816;19;20138;-74
2023/09/06 04:29:11;;;;;;;4.50;3.38;;;16.10;99.90;;;;;;7387373;19;20130;-76
2023/09/06 04:31:41;;;;;;;5.28;3.33;;;16.00;99.90;;;;;;7388917;19;20713;-73
2023/09/06 04:34:07;;;;;;;4.57;3.13;;;16.00;99.90;;;;;;7385815;19;20138;-75
2023/09/06 04:36:36;;;;;;;6.57;3.25;;;16.00;99.90;;;;;;7389064;19;20144;-75
2023/09/06 04:39:03;;;;;;;4.13;3.05;;;16.00;99.90;;;;;;7388137;19;20135;-75
2023/09/06 04:41:31;;;;;;;5.00;3.25;;;16.20;99.90;;;;;;7387737;19;20134;-74
2023/09/06 04:43:57;;;;;;;6.13;3.70;;;16.70;99.90;;;;;;7387168;19;20474;-75
2023/09/06 04:46:23;;;;;;;4.95;3.63;;;17.00;99.90;;;;;;7390029;19;20153;-74
2023/09/06 04:48:48;;;;;;;5.90;3.92;;;17.00;99.90;;;;;;7390253;19;20555;-74
2023/09/06 04:51:14;;;;;;;4.57;3.35;;;16.80;99.90;;;;;;7388057;19;20134;-75
2023/09/06 04:53:40;;;;;;;4.85;3.53;;;17.00;99.90;;;;;;7384784;19;20562;-74
2023/09/06 04:56:07;;;;;;;7.75;3.17;;;17.20;99.90;;;;;;7387265;19;20246;-74
2023/09/06 04:58:33;;;;;;;6.38;3.88;;;17.30;99.90;;;;;;7387381;19;20141;-74
2023/09/06 05:01:05;;;;;;;5.93;3.30;;;17.30;99.90;;;;;;7388249;19;20126;-76
2023/09/06 05:03:32;;;;;;;4.53;3.33;;;17.20;99.90;;;;;;7385767;19;20127;-75
2023/09/06 05:05:58;;;;;;;5.70;3.47;;;17.10;99.90;;;;;;7387659;19;20150;-75
2023/09/06 05:08:24;;;;;;;7.05;3.90;;;17.40;99.90;;;;;;7386715;19;20756;-75
2023/09/06 05:10:51;;;;;;;5.28;3.47;;;17.20;99.90;;;;;;7388645;19;20142;-74
2023/09/06 05:13:18;;;;;;;7.43;4.20;;;17.10;99.90;;;;;;7383985;19;20171;-74
2023/09/06 05:15:44;;;;;;;4.85;3.55;;;17.30;99.90;;;;;;7388342;19;20150;-75
2023/09/06 05:18:11;;;;;;;8.02;4.75;;;17.40;99.90;;;;;;7386375;19;20142;-75
2023/09/06 05:20:39;;;;;;;4.88;3.65;;;17.10;99.90;;;;;;7388227;19;20130;-75
2023/09/06 05:23:12;;;;;;;5.50;3.88;;;16.90;99.90;;;;;;7388085;19;20146;-76
2023/09/06 05:25:39;;;;;;;6.85;4.30;;;16.90;99.90;;;;;;7387250;19;20135;-74
2023/09/06 05:28:10;;;;;;;6.63;4.07;;;16.80;99.90;;;;;;7388623;19;20165;-75
2023/09/06 05:30:40;;;;;;;7.63;4.03;;;16.70;99.90;;;;;;7384435;19;20575;-76
2023/09/06 05:33:06;;;;;;;5.93;4.07;;;16.80;99.90;;;;;;7385897;19;20138;-76
2023/09/06 05:35:34;;;;;;;6.15;4.25;;;17.00;99.90;;;;;;7386226;19;20167;-74
2023/09/06 05:38:01;;;;;;;5.97;3.75;;;17.20;99.90;;;;;;7387515;19;20122;-79
2023/09/06 05:40:29;;;;;;;5.40;3.42;;;17.30;99.90;;;;;;7385365;19;20156;-79
2023/09/06 05:42:55;;;;;;;8.38;3.40;;;17.50;99.90;;;;;;7387134;19;20256;-79
2023/09/06 05:45:21;;;;;;;5.07;3.80;;;17.50;99.90;;;;;;7385257;19;20147;-79
2023/09/06 05:47:49;;;;;;;4.35;3.65;;;17.50;99.90;;;;;;7388618;19;20141;-79
2023/09/06 05:50:15;;;;;;;6.35;4.80;;;17.20;99.90;;;;;;7384202;19;20150;-80
2023/09/06 05:52:41;;;;;;;11.65;8.13;;;17.40;99.90;;;;;;7387374;19;20158;-79
2023/09/06 05:55:08;;;;;;;7.60;5.45;;;17.40;99.90;;;;;;7385088;19;20157;-79
2023/09/06 05:57:35;;;;;;;4.82;3.45;;;17.50;99.90;;;;;;7385257;19;20142;-79
2023/09/06 06:00:02;;;;;;;5.07;3.03;;;17.60;99.90;;;;;;7386116;19;20146;-75
2023/09/06 06:02:30;;;;;;;6.22;3.30;;;17.80;99.90;;;;;;7384686;19;20507;-74
2023/09/06 06:04:56;;;;;;;5.22;2.97;;;17.80;99.90;;;;;;7383204;19;20165;-75
2023/09/06 06:07:22;;;;;;;4.93;3.55;;;17.80;99.90;;;;;;7388021;19;20131;-77
2023/09/06 06:09:48;;;;;;;5.50;3.75;;;17.60;99.90;;;;;;7384771;19;20145;-77
2023/09/06 06:12:14;;;;;;;5.43;3.35;;;17.30;99.90;;;;;;7383554;19;20165;-77
2023/09/06 06:14:43;;;;;;;4.80;3.10;;;17.50;99.90;;;;;;7385816;19;20130;-75
2023/09/06 06:17:09;;;;;;;8.43;4.68;;;17.80;99.90;;;;;;7391953;19;20193;-76
2023/09/06 06:19:36;;;;;;;5.97;4.20;;;17.90;99.90;;;;;;7393293;19;20135;-74
2023/09/06 06:22:02;;;;;;;7.38;6.18;;;17.90;99.90;;;;;;7393544;19;20258;-75
2023/09/06 06:24:36;;;;;;;7.15;5.82;;;17.60;99.90;;;;;;7390869;19;20172;-80
2023/09/06 06:27:04;;;;;;;4.72;3.58;;;17.60;99.90;;;;;;7392176;19;20560;-76
2023/09/06 06:29:29;;;;;;;3.65;3.30;;;17.40;99.90;;;;;;7394803;19;20146;-77
2023/09/06 06:31:56;;;;;;;5.57;3.47;;;17.30;99.90;;;;;;7394371;19;20471;-77
2023/09/06 06:34:24;;;;;;;20.83;14.25;;;17.10;99.90;;;;;;7388925;19;20139;-77
2023/09/06 06:36:49;;;;;;;4.43;3.65;;;17.10;99.90;;;;;;7392732;19;20149;-77
2023/09/06 06:39:15;;;;;;;4.88;3.67;;;17.20;99.90;;;;;;7390784;19;20138;-77
2023/09/06 06:41:42;;;;;;;4.05;3.30;;;17.30;99.90;;;;;;7392146;19;20603;-78
2023/09/06 06:44:08;;;;;;;7.53;4.28;;;17.40;99.90;;;;;;7389269;19;20134;-77
2023/09/06 06:46:36;;;;;;;7.97;5.32;;;17.50;99.90;;;;;;7393779;19;20142;-77
2023/09/06 06:49:09;;;;;;;6.93;4.97;;;17.90;99.90;;;;;;7393503;19;20139;-77
2023/09/06 06:51:40;;;;;;;6.97;4.72;;;18.20;99.90;;;;;;7392773;19;20152;-76
2023/09/06 06:54:08;;;;;;;9.20;5.68;;;18.40;99.90;;;;;;7388534;19;20214;-78
2023/09/06 06:56:37;;;;;;;6.07;4.30;;;18.50;99.90;;;;;;7390407;19;20158;-77
2023/09/06 06:59:04;;;;;;;11.05;6.15;;;18.50;99.90;;;;;;7391907;19;20636;-77
2023/09/06 07:01:31;;;;;;;6.20;4.75;;;18.60;99.90;;;;;;7390287;19;20610;-76
2023/09/06 07:03:58;;;;;;;7.55;4.72;;;18.70;99.90;;;;;;7392010;19;20190;-76
2023/09/06 07:06:24;;;;;;;6.85;4.18;;;18.80;99.90;;;;;;7391019;19;20135;-75
2023/09/06 07:08:52;;;;;;;6.90;4.53;;;18.80;99.90;;;;;;7392590;19;20142;-76
2023/09/06 07:11:18;;;;;;;7.57;5.07;;;18.90;99.90;;;;;;7390802;19;20146;-77
2023/09/06 07:13:49;;;;;;;11.60;4.90;;;19.00;99.90;;;;;;7391046;19;20143;-77
2023/09/06 07:16:16;;;;;;;5.10;3.60;;;19.10;99.90;;;;;;7391077;19;20781;-77
2023/09/06 07:18:42;;;;;;;7.07;3.88;;;19.10;99.90;;;;;;7393125;19;20139;-76
2023/09/06 07:21:08;;;;;;;4.53;3.53;;;19.30;99.90;;;;;;7391171;19;20234;-76
2023/09/06 07:23:34;;;;;;;4.38;3.63;;;19.40;99.90;;;;;;7390492;19;20575;-78
2023/09/06 07:25:59;;;;;;;4.55;3.83;;;19.50;99.90;;;;;;7388816;19;20158;-79
2023/09/06 07:28:31;;;;;;;3.80;3.10;;;19.50;99.90;;;;;;7391232;19;20153;-77
2023/09/06 07:30:57;;;;;;;4.00;3.33;;;19.60;99.90;;;;;;7387843;19;20135;-77
2023/09/06 07:33:24;;;;;;;5.88;4.07;;;19.70;99.90;;;;;;7387963;19;20156;-76
2023/09/06 07:35:49;;;;;;;4.85;3.55;;;19.80;99.90;;;;;;7392161;19;20522;-77
2023/09/06 07:38:15;;;;;;;4.82;3.60;;;19.80;99.90;;;;;;7390652;19;20131;-76
2023/09/06 07:40:41;;;;;;;5.47;3.72;;;19.80;99.90;;;;;;7391142;19;20525;-77
2023/09/06 07:43:07;;;;;;;6.63;3.65;;;19.90;99.90;;;;;;7391103;19;20129;-76
2023/09/06 07:45:32;;;;;;;6.72;3.92;;;20.10;99.90;;;;;;7394617;19;20131;-79
2023/09/06 07:48:01;;;;;;;4.93;3.88;;;20.30;99.90;;;;;;7389691;19;20503;-79
2023/09/06 07:50:26;;;;;;;5.55;3.53;;;20.50;99.90;;;;;;7387171;19;20134;-78
2023/09/06 07:52:52;;;;;;;5.05;3.40;;;20.90;99.90;;;;;;7387025;19;20217;-78
2023/09/06 07:55:18;;;;;;;5.63;3.67;;;21.50;99.90;;;;;;7388527;19;20138;-78
2023/09/06 07:57:44;;;;;;;4.20;3.20;;;22.10;99.90;;;;;;7388039;19;20215;-79
2023/09/06 08:00:11;;;;;;;6.22;4.00;;;22.50;99.90;;;;;;7388991;19;20167;-78
2023/09/06 08:02:36;;;;;;;7.55;3.85;;;23.10;99.90;;;;;;7389391;19;20552;-79
2023/09/06 08:05:04;;;;;;;5.40;3.78;;;23.40;99.90;;;;;;7385766;19;20191;-77
2023/09/06 08:07:30;;;;;;;4.38;3.50;;;23.30;99.90;;;;;;7389548;19;20150;-78
2023/09/06 08:09:56;;;;;;;6.00;3.35;;;23.10;99.90;;;;;;7388521;19;20138;-78
2023/09/06 08:12:21;;;;;;;6.20;4.13;;;23.00;99.90;;;;;;7390203;19;20134;-78
2023/09/06 08:14:47;;;;;;;5.90;4.22;;;23.00;99.90;;;;;;7388767;19;20126;-80
2023/09/06 08:17:13;;;;;;;5.07;4.18;;;22.90;99.90;;;;;;7388337;19;20143;-78
2023/09/06 08:19:38;;;;;;;5.55;3.80;;;22.70;99.90;;;;;;7389124;19;20202;-78
2023/09/06 08:22:04;;;;;;;6.82;3.90;;;22.50;99.90;;;;;;7391130;19;20206;-78
2023/09/06 08:24:31;;;;;;;4.35;3.72;;;22.30;99.90;;;;;;7388393;19;20135;-77
2023/09/06 08:26:57;;;;;;;4.43;3.67;;;22.30;99.90;;;;;;7391209;19;20151;-77
2023/09/06 08:29:22;;;;;;;7.43;3.60;;;22.20;99.90;;;;;;7388966;19;20130;-76
2023/09/06 08:31:48;;;;;;;4.35;3.35;;;22.20;99.90;;;;;;7389831;19;20130;-77
2023/09/06 08:34:14;;;;;;;4.20;3.60;;;22.20;99.90;;;;;;7383797;19;20146;-77
2023/09/06 08:36:39;;;;;;;5.18;3.85;;;22.30;99.90;;;;;;7389750;19;20127;-76
2023/09/06 08:39:06;;;;;;;7.47;3.58;;;22.30;99.90;;;;;;7388768;19;20131;-75
2023/09/06 08:41:33;;;;;;;4.72;3.38;;;22.50;99.90;;;;;;7390903;19;20145;-77
2023/09/06 08:44:06;;;;;;;4.68;3.30;;;22.50;99.90;;;;;;7386573;19;20187;-79
2023/09/06 08:46:37;;;;;;;7.47;3.72;;;22.50;99.90;;;;;;7388157;19;20504;-78
2023/09/06 08:49:04;;;;;;;6.65;3.58;;;22.50;99.90;;;;;;7390265;19;20205;-78
2023/09/06 08:51:35;;;;;;;5.78;3.78;;;22.50;99.90;;;;;;7391211;19;20134;-78
2023/09/06 08:54:06;;;;;;;4.85;3.38;;;22.50;99.90;;;;;;7386904;19;20166;-78
2023/09/06 08:56:53;;;;;;;3.67;3.05;;;22.50;99.90;;;;;;7386466;19;20176;-79
2023/09/06 08:59:19;;;;;;;5.80;3.38;;;22.60;99.90;;;;;;7389871;19;20458;-76
2023/09/06 09:01:45;;;;;;;4.72;3.60;;;22.70;99.90;;;;;;7388042;19;20134;-78
2023/09/06 09:04:12;;;;;;;4.25;3.30;;;22.70;99.90;;;;;;7384832;19;20167;-78
2023/09/06 09:06:43;;;;;;;4.20;3.40;;;22.50;99.90;;;;;;7388042;19;20206;-79
2023/09/06 09:09:16;;;;;;;4.80;3.10;;;22.50;99.90;;;;;;7389880;19;20141;-78
2023/09/06 09:11:50;;;;;;;3.28;2.63;;;22.60;99.90;;;;;;7387740;19;20139;-77
2023/09/06 09:14:19;;;;;;;3.65;3.08;;;22.70;99.90;;;;;;7385380;19;20138;-78
2023/09/06 09:16:51;;;;;;;3.53;2.80;;;22.80;99.90;;;;;;7386379;19;20153;-79
2023/09/06 09:19:19;;;;;;;4.78;3.47;;;23.00;99.90;;;;;;7389142;19;20583;-80
2023/09/06 09:21:45;;;;;;;5.38;3.30;;;23.20;99.90;;;;;;7386804;19;20146;-78
2023/09/06 09:24:12;;;;;;;5.65;3.90;;;23.30;99.90;;;;;;7387342;19;20145;-79
2023/09/06 09:26:41;;;;;;;4.95;3.15;;;23.20;99.90;;;;;;7388435;19;20138;-78
2023/09/06 09:29:12;;;;;;;4.20;3.45;;;23.20;99.90;;;;;;7387650;19;20126;-78
2023/09/06 09:31:40;;;;;;;4.13;3.10;;;23.30;99.90;;;;;;7387489;19;20165;-79
2023/09/06 09:34:05;;;;;;;6.43;3.60;;;23.40;99.90;;;;;;7383471;19;20730;-77
2023/09/06 09:36:34;;;;;;;3.83;3.30;;;23.30;99.90;;;;;;7388938;19;20187;-80
2023/09/06 09:39:06;;;;;;;7.75;3.65;;;23.30;99.90;;;;;;7386118;19;20757;-79
2023/09/06 09:41:32;;;;;;;5.10;3.80;;;23.10;99.90;;;;;;7387728;19;20146;-80
2023/09/06 09:44:19;;;;;;;4.70;3.92;;;23.10;99.90;;;;;;7388147;19;20563;-79
2023/09/06 09:46:46;;;;;;;5.38;4.05;;;23.40;99.90;;;;;;7386698;19;20468;-84
2023/09/06 09:49:13;;;;;;;6.03;3.17;;;23.40;99.90;;;;;;7390184;19;20508;-77
2023/09/06 09:51:42;;;;;;;5.25;3.47;;;23.30;99.90;;;;;;7394376;19;20152;-77
2023/09/06 09:54:13;;;;;;;7.28;3.65;;;23.40;99.90;;;;;;7390780;19;20144;-78
2023/09/06 09:56:44;;;;;;;5.60;3.90;;;23.40;99.90;;;;;;7392812;19;20138;-76
2023/09/06 09:59:10;;;;;;;5.75;3.33;;;23.40;99.90;;;;;;7394795;19;20166;-78
2023/09/06 10:01:38;;;;;;;4.68;3.42;;;23.40;99.90;;;;;;7393701;19;20863;-77
2023/09/06 10:04:07;;;;;;;5.32;3.65;;;23.40;99.90;;;;;;7394305;19;20153;-78
2023/09/06 10:06:34;;;;;;;5.45;3.70;;;23.50;99.90;;;;;;7390675;19;20138;-76
2023/09/06 10:09:03;;;;;;;4.45;3.63;;;23.70;99.90;;;;;;7392038;19;20145;-76
2023/09/06 10:11:32;;;;;;;4.53;3.28;;;23.70;99.90;;;;;;7394080;19;20166;-77
2023/09/06 10:13:59;;;;;;;5.22;3.30;;;23.80;99.90;;;;;;7391401;19;20131;-76
2023/09/06 10:16:26;;;;;;;5.57;3.47;;;23.80;99.90;;;;;;7394005;19;20743;-74
2023/09/06 10:18:51;;;;;;;5.07;3.45;;;23.80;99.90;;;;;;7392013;19;20131;-75
2023/09/06 10:21:18;;;;;;;5.10;3.47;;;24.10;99.90;;;;;;7393205;19;20655;-76
2023/09/06 10:23:47;;;;;;;4.28;3.42;;;24.20;99.90;;;;;;7392005;19;20189;-76
2023/09/06 10:26:24;;;;;;;5.82;3.40;;;24.20;99.90;;;;;;7390144;19;20436;-75
2023/09/06 10:29:00;;;;;;;4.38;3.70;;;24.20;99.90;;;;;;7394423;19;20567;-75
2023/09/06 10:32:01;;;;;;;4.93;3.38;;;24.30;99.90;;;;;;7393626;19;20154;-77
2023/09/06 10:34:32;;;;;;;4.45;3.45;;;24.50;99.90;;;;;;7390262;19;20151;-75
2023/09/06 10:37:00;;;;;;;5.57;3.22;;;24.60;99.90;;;;;;7392152;19;20153;-75
2023/09/06 10:39:28;;;;;;;6.38;4.47;;;24.60;99.90;;;;;;7389492;19;20142;-75
2023/09/06 10:42:13;;;;;;;10.63;4.13;;;24.80;99.90;;;;;;7390759;19;20146;-76
2023/09/06 10:44:54;;;;;;;4.65;3.50;;;25.00;99.90;;;;;;7390218;19;20142;-75
2023/09/06 10:47:35;;;;;;;5.78;4.55;;;25.00;99.90;;;;;;7392690;19;20143;-77
2023/09/06 10:50:10;;;;;;;5.07;3.65;;;24.90;99.90;;;;;;7392954;19;20141;-77
2023/09/06 10:52:53;;;;;;;6.45;3.42;;;24.90;99.90;;;;;;7391335;19;20139;-77
2023/09/06 10:55:27;;;;;;;5.38;3.65;;;24.90;99.90;;;;;;7391395;19;20134;-77
2023/09/06 10:58:13;;;;;;;16.10;8.15;;;24.90;99.90;;;;;;7390837;19;20217;-76
2023/09/06 11:00:41;;;;;;;4.95;3.90;;;24.90;99.90;;;;;;7388815;19;20154;-78
2023/09/06 11:03:06;;;;;;;17.10;9.15;;;25.00;99.90;;;;;;7389459;19;20139;-78
2023/09/06 11:05:42;;;;;;;12.43;6.60;;;25.00;99.90;;;;;;7390410;19;20173;-76
2023/09/06 11:08:09;;;;;;;4.30;3.00;;;25.30;99.90;;;;;;7392053;19;20131;-76
2023/09/06 11:10:35;;;;;;;5.97;3.38;;;25.40;99.90;;;;;;7389936;19;20143;-77
2023/09/06 11:13:11;;;;;;;69.38;40.40;;;25.40;99.90;;;;;;7387511;19;20575;-76
2023/09/06 11:15:41;;;;;;;6.93;3.95;;;25.40;99.90;;;;;;7391597;19;20154;-76
2023/09/06 11:18:09;;;;;;;4.88;3.53;;;25.50;99.90;;;;;;7392739;19;20210;-76
2023/09/06 11:20:35;;;;;;;6.28;4.35;;;25.40;99.90;;;;;;7392344;19;20141;-75
2023/09/06 11:23:03;;;;;;;5.47;3.47;;;25.40;99.90;;;;;;7389217;19;20134;-75
2023/09/06 11:25:34;;;;;;;7.53;4.72;;;25.30;99.90;;;;;;7393097;19;20147;-76
2023/09/06 11:28:16;;;;;;;8.95;5.28;;;25.50;99.90;;;;;;7392049;19;20497;-77
2023/09/06 11:30:47;;;;;;;5.65;4.00;;;25.50;99.90;;;;;;7387963;19;20165;-78
2023/09/06 11:33:17;;;;;;;7.50;5.13;;;25.70;99.90;;;;;;7389507;19;20143;-77
2023/09/06 11:35:52;;;;;;;4.95;4.10;;;25.70;99.90;;;;;;7391255;19;20151;-78
2023/09/06 11:38:24;;;;;;;3.97;2.97;;;25.70;99.90;;;;;;7389752;19;20145;-76
2023/09/06 11:40:51;;;;;;;3.70;2.50;;;25.70;99.90;;;;;;7391886;19;20134;-75
2023/09/06 11:43:22;;;;;;;4.07;3.63;;;25.70;99.90;;;;;;7391497;19;20138;-76
2023/09/06 11:45:53;;;;;;;4.57;4.03;;;25.90;99.90;;;;;;7390603;19;20139;-75
2023/09/06 11:48:27;;;;;;;5.38;3.70;;;25.90;99.90;;;;;;7390378;19;20490;-76
2023/09/06 11:51:05;;;;;;;4.65;3.55;;;26.00;99.90;;;;;;7388389;19;20142;-76
2023/09/06 11:53:32;;;;;;;6.35;4.85;;;26.00;99.90;;;;;;7387487;19;20202;-76
2023/09/06 11:56:01;;;;;;;6.10;3.97;;;26.10;99.90;;;;;;7389590;19;20134;-76
2023/09/06 11:58:29;;;;;;;5.68;4.50;;;26.10;99.90;;;;;;7391509;19;20135;-76
2023/09/06 12:00:56;;;;;;;4.35;3.53;;;26.20;99.90;;;;;;7389629;19;20167;-77
2023/09/06 12:03:29;;;;;;;3.53;2.97;;;26.30;99.90;;;;;;7387874;19;20147;-78
2023/09/06 12:05:59;;;;;;;4.55;3.30;;;26.30;99.90;;;;;;7389216;19;20185;-77
2023/09/06 12:08:27;;;;;;;4.32;3.08;;;26.50;99.90;;;;;;7391548;19;20151;-76
2023/09/06 12:10:58;;;;;;;3.92;3.30;;;26.60;99.90;;;;;;7390841;19;20226;-76
2023/09/06 12:13:29;;;;;;;5.78;3.28;;;26.60;99.90;;;;;;7388785;19;20533;-80
2023/09/06 12:16:01;;;;;;;4.32;3.45;;;26.60;99.90;;;;;;7388703;19;20218;-77
2023/09/06 12:18:28;;;;;;;18.98;5.03;;;26.60;99.90;;;;;;7389485;19;20511;-77
2023/09/06 12:20:54;;;;;;;5.55;3.50;;;26.60;99.90;;;;;;7389242;19;20232;-78
2023/09/06 12:23:21;;;;;;;5.57;3.55;;;26.70;99.90;;;;;;7389082;19;20143;-77
2023/09/06 12:25:47;;;;;;;4.13;3.13;;;26.80;99.90;;;;;;7390976;19;20165;-77
2023/09/06 12:28:13;;;;;;;3.72;2.92;;;26.80;99.90;;;;;;7389028;19;20552;-77
2023/09/06 12:30:39;;;;;;;6.13;3.78;;;26.90;99.90;;;;;;7388629;19;20167;-77
2023/09/06 12:33:04;;;;;;;4.30;3.17;;;27.00;99.90;;;;;;7387314;19;20153;-78
2023/09/06 12:35:37;;;;;;;3.30;3.00;;;27.10;99.90;;;;;;7390289;19;20450;-77
2023/09/06 12:38:03;;;;;;;4.53;3.17;;;27.10;99.90;;;;;;7389367;19;20163;-77
2023/09/06 12:40:30;;;;;;;5.53;2.78;;;27.10;99.90;;;;;;7387242;19;20146;-77
2023/09/06 12:42:57;;;;;;;7.22;3.00;;;27.20;99.90;;;;;;7390813;19;20171;-78
2023/09/06 12:45:28;;;;;;;4.35;3.00;;;27.30;99.90;;;;;;7386900;19;20150;-77
2023/09/06 12:47:55;;;;;;;5.20;3.80;;;27.20;99.90;;;;;;7389289;19;20150;-77
2023/09/06 12:50:21;;;;;;;4.90;3.13;;;27.40;99.90;;;;;;7389194;19;20138;-76
2023/09/06 12:52:48;;;;;;;4.63;3.08;;;27.40;99.90;;;;;;7385712;19;20142;-77